.
WxDataArchive / Data Records for 2016-03-09
2016-03-08 March 2016 2016-03-10

Data Records for Wednesday, 09 March 2016

Time	Temp	Chill	HIndex	Humid	Dewpt	 Wind 	HiWind	WindDir	Rain 	Barom
-----	----	-----	------	-----	-----	------	------	-------	-----	-----
00:00	59.2	59.2	59.2	66	47.8	0	1	248	0.00	29.921 
00:05	59.0	59.0	59.0	67	48.1	0	1	248	0.00	29.921 
00:10	58.6	58.6	58.6	67	47.7	0	1	248	0.00	29.921 
00:15	58.3	58.3	58.3	68	47.8	0	1	248	0.00	29.918 
00:20	58.1	58.1	58.1	69	48.0	0	1	248	0.00	29.918 
00:25	57.8	57.8	57.8	69	47.7	0	1	248	0.00	29.918 
00:30	57.6	57.6	57.6	69	47.5	0	2	248	0.00	29.915 
00:35	57.5	57.5	57.5	69	47.4	0	2	248	0.00	29.915 
00:40	57.3	57.3	57.3	69	47.2	0	2	248	0.00	29.915 
00:45	57.2	57.2	57.2	69	47.1	0	2	248	0.00	29.921 
00:50	57.2	57.2	57.2	69	47.1	0	2	248	0.00	29.921 
00:55	57.0	57.0	57.0	69	46.9	0	1	248	0.00	29.921 
01:00	57.0	57.0	57.0	69	46.9	0	1	248	0.00	29.924 
01:05	56.9	56.9	56.9	69	46.8	0	0	---	0.00	29.924 
01:10	56.9	56.9	56.9	68	46.4	0	0	---	0.00	29.924 
01:15	56.7	56.7	56.7	68	46.3	0	1	248	0.00	29.924 
01:20	56.7	56.7	56.7	68	46.3	0	1	248	0.00	29.924 
01:25	56.7	56.7	56.7	67	45.9	0	2	248	0.00	29.924 
01:30	56.9	56.9	56.9	66	45.7	0	1	248	0.00	29.922 
01:35	56.7	56.7	56.7	66	45.5	0	1	248	0.00	29.922 
01:40	56.6	56.6	56.6	66	45.4	0	1	248	0.00	29.922 
01:45	56.6	56.6	56.6	66	45.4	0	1	248	0.00	29.918 
01:50	56.5	56.5	56.5	66	45.3	0	1	248	0.00	29.918 
01:55	56.3	56.3	56.3	66	45.1	0	1	248	0.00	29.918 
02:00	56.0	56.0	56.0	66	44.8	0	1	248	0.00	29.920 
02:05	55.9	55.9	55.9	67	45.1	0	1	248	0.00	29.920 
02:10	55.7	55.7	55.7	67	44.9	0	1	248	0.00	29.920 
02:15	55.6	55.6	55.6	67	44.8	0	1	248	0.00	29.917 
02:20	55.3	55.3	55.3	67	44.5	0	0	---	0.00	29.917 
02:25	55.1	55.1	55.1	67	44.3	0	1	248	0.00	29.917 
02:30	55.0	55.0	55.0	67	44.2	0	0	---	0.00	29.909 
02:35	54.7	54.7	54.7	68	44.3	0	0	---	0.00	29.909 
02:40	54.5	54.5	54.5	68	44.2	0	0	---	0.00	29.909 
02:45	54.5	54.5	54.5	68	44.2	0	1	248	0.00	29.907 
02:50	54.5	54.5	54.5	68	44.2	0	1	248	0.00	29.907 
02:55	54.5	54.5	54.5	67	43.8	0	1	248	0.00	29.907 
03:00	54.5	54.5	54.5	67	43.8	0	1	248	0.00	29.905 
03:05	54.7	54.7	54.7	67	44.0	0	1	248	0.00	29.905 
03:10	54.7	54.7	54.7	67	44.0	0	2	248	0.00	29.905 
03:15	54.8	54.8	54.8	66	43.7	0	2	248	0.00	29.902 
03:20	55.1	55.1	55.1	65	43.5	0	1	248	0.00	29.902 
03:25	55.6	55.6	55.6	65	44.0	0	1	248	0.00	29.902 
03:30	55.9	55.9	55.9	64	43.9	0	1	248	0.00	29.897 
03:35	56.3	56.3	56.3	63	43.9	0	3	225	0.00	29.897 
03:40	56.7	56.7	56.7	62	43.8	0	1	225	0.00	29.897 
03:45	56.9	56.9	56.9	62	44.0	0	1	225	0.00	29.892 
03:50	57.2	57.2	57.2	62	44.3	0	2	225	0.00	29.892 
03:55	57.5	57.5	57.5	61	44.2	0	4	202	0.00	29.892 
04:00	57.8	57.8	57.8	60	44.0	0	3	202	0.00	29.889 
04:05	58.0	58.0	58.0	60	44.2	0	1	180	0.00	29.889 
04:10	58.3	58.3	58.3	60	44.5	1	4	90	0.00	29.889 
04:15	58.4	58.4	58.4	60	44.6	0	3	90	0.00	29.888 
04:20	58.4	58.4	58.4	59	44.1	1	3	90	0.00	29.888 
04:25	58.6	58.6	58.6	59	44.3	0	2	90	0.00	29.888 
04:30	58.6	58.6	58.6	59	44.3	1	3	90	0.00	29.882 
04:35	58.4	58.4	58.4	60	44.6	0	2	90	0.00	29.882 
04:40	58.4	58.4	58.4	60	44.6	0	3	90	0.00	29.882 
04:45	58.4	58.4	58.4	60	44.6	1	3	68	0.00	29.882 
04:50	58.3	58.3	58.3	60	44.5	0	3	68	0.00	29.882 
04:55	58.3	58.3	58.3	61	44.9	0	2	45	0.00	29.882 
05:00	58.3	58.3	58.3	60	44.5	1	4	90	0.00	29.875 
05:05	58.4	58.4	58.4	60	44.6	1	5	112	0.00	29.875 
05:10	58.6	58.6	58.6	61	45.2	0	2	112	0.00	29.875 
05:15	58.6	58.6	58.6	60	44.8	1	6	112	0.00	29.863 
05:20	58.7	58.7	58.7	60	44.8	2	7	90	0.00	29.863 
05:25	58.9	58.9	58.9	61	45.5	1	6	112	0.00	29.863 
05:30	58.9	58.9	58.9	61	45.5	1	5	90	0.00	29.858 
05:35	59.0	59.0	59.0	60	45.1	2	10	45	0.00	29.858 
05:40	59.2	59.2	59.2	60	45.3	2	6	112	0.00	29.858 
05:45	59.3	59.3	59.3	59	45.0	2	7	90	0.00	29.844 
05:50	59.3	59.3	59.3	60	45.4	1	5	90	0.00	29.844 
05:55	59.5	59.5	59.5	59	45.2	1	7	68	0.00	29.844 
06:00	59.5	59.5	59.5	59	45.2	2	12	90	0.00	29.857 
06:05	59.6	59.6	59.6	59	45.3	2	7	90	0.00	29.857 
06:10	59.8	59.8	59.8	59	45.4	3	10	68	0.00	29.857 
06:15	59.8	59.8	59.8	59	45.4	3	7	90	0.00	29.846 
06:20	59.8	59.8	59.8	60	45.9	1	5	270	0.00	29.846 
06:25	59.6	59.6	59.6	60	45.7	1	4	90	0.00	29.846 
06:30	59.6	59.6	59.6	60	45.7	1	4	112	0.00	29.871 
06:35	59.6	59.6	59.6	60	45.7	1	3	248	0.00	29.871 
06:40	59.6	59.6	59.6	61	46.1	1	3	315	0.00	29.871 
06:45	59.5	59.5	59.5	61	46.0	0	3	270	0.00	29.883 
06:50	59.5	59.5	59.5	61	46.0	0	2	338	0.00	29.883 
06:55	59.5	59.5	59.5	61	46.0	1	3	248	0.00	29.883 
07:00	59.6	59.6	59.6	61	46.1	1	3	248	0.00	29.890 
07:05	59.6	59.6	59.6	62	46.6	1	3	248	0.00	29.890 
07:10	59.6	59.6	59.6	62	46.6	0	1	270	0.00	29.890 
07:15	59.6	59.6	59.6	63	47.0	1	4	270	0.00	29.902 
07:20	59.6	59.6	59.6	64	47.4	1	3	270	0.00	29.902 
07:25	59.5	59.5	59.5	65	47.7	1	4	248	0.00	29.902 
07:30	59.3	59.3	59.3	66	47.9	1	3	270	0.00	29.904 
07:35	59.3	59.3	59.3	66	47.9	1	4	225	0.00	29.904 
07:40	59.2	59.2	59.2	67	48.2	1	3	225	0.00	29.904 
07:45	59.2	59.2	59.2	67	48.2	1	3	248	0.00	29.908 
07:50	59.2	59.2	59.2	68	48.6	1	4	248	0.00	29.908 
07:55	59.2	59.2	59.2	68	48.6	1	7	248	0.00	29.908 
08:00	59.2	59.2	59.2	69	49.0	1	4	248	0.00	29.921 
08:05	59.2	59.2	59.2	69	49.0	1	4	248	0.00	29.921 
08:10	59.2	59.2	59.2	71	49.8	1	3	248	0.00	29.921 
08:15	59.2	59.2	59.2	71	49.8	1	3	270	0.00	29.927 
08:20	59.2	59.2	59.2	73	50.5	1	4	270	0.00	29.927 
08:25	59.0	59.0	59.0	73	50.4	1	4	248	0.00	29.927 
08:30	59.0	59.0	59.0	73	50.4	1	3	248	0.00	29.926 
08:35	58.9	58.9	58.9	75	51.0	1	4	270	0.00	29.926 
08:40	58.9	58.9	58.9	75	51.0	1	5	248	0.00	29.926 
08:45	58.7	58.7	58.7	76	51.2	1	4	248	0.00	29.931 
08:50	58.7	58.7	58.7	77	51.5	1	4	248	0.00	29.931 
08:55	58.6	58.6	58.6	77	51.4	1	4	248	0.00	29.931 
09:00	58.6	58.6	58.6	77	51.4	1	3	248	0.00	29.938 
09:05	58.6	58.6	58.6	77	51.4	1	3	248	0.00	29.938 
09:10	58.7	58.7	58.7	77	51.5	1	3	248	0.00	29.938 
09:15	58.9	58.9	58.9	76	51.3	1	5	270	0.00	29.943 
09:20	59.0	59.0	59.0	75	51.1	1	5	248	0.00	29.943 
09:25	59.2	59.2	59.2	74	50.9	1	4	248	0.00	29.943 
09:30	59.3	59.3	59.3	73	50.6	1	5	270	0.00	29.954 
09:35	59.5	59.5	59.5	72	50.5	1	4	248	0.00	29.954 
09:40	59.8	59.8	59.8	73	51.1	1	5	248	0.00	29.954 
09:45	59.8	59.8	59.8	74	51.5	2	5	248	0.00	29.959 
09:50	59.5	59.5	59.5	77	52.3	2	7	248	0.01	29.959 
09:55	59.0	59.0	59.0	80	52.8	1	6	248	0.00	29.959 
10:00	58.4	58.4	58.4	81	52.6	1	4	270	0.01	29.960 
10:05	58.1	58.1	58.1	82	52.6	1	3	202	0.00	29.960 
10:10	58.0	58.0	58.0	83	52.9	1	4	248	0.00	29.960 
10:15	58.1	58.1	58.1	84	53.3	1	3	248	0.00	29.962 
10:20	58.1	58.1	58.1	84	53.3	1	4	248	0.00	29.962 
10:25	58.3	58.3	58.3	84	53.5	0	2	270	0.00	29.962 
10:30	58.6	58.6	58.6	83	53.4	0	2	270	0.00	29.960 
10:35	58.9	58.9	58.9	83	53.7	0	2	270	0.00	29.960 
10:40	59.2	59.2	59.2	81	53.4	1	3	248	0.00	29.960 
10:45	59.8	59.8	59.8	81	54.0	1	9	90	0.00	29.950 
10:50	60.2	60.2	60.2	79	53.7	1	4	90	0.00	29.950 
10:55	60.5	60.5	60.5	78	53.6	1	5	248	0.00	29.950 
11:00	60.9	60.9	60.9	77	53.6	1	7	292	0.00	29.942 
11:05	61.3	61.3	61.3	77	54.0	0	4	90	0.00	29.942 
11:10	62.1	62.1	62.1	77	54.8	0	2	270	0.00	29.942 
11:15	62.7	62.7	62.7	73	53.9	1	8	270	0.00	29.926 
11:20	63.5	63.5	63.5	72	54.3	1	5	292	0.00	29.926 
11:25	63.9	63.9	63.9	70	53.9	2	5	248	0.00	29.926 
11:30	64.0	64.0	64.0	71	54.4	2	6	225	0.00	29.926 
11:35	63.9	63.9	63.9	69	53.5	2	6	248	0.00	29.926 
11:40	64.0	64.0	64.0	70	54.0	1	4	248	0.00	29.926 
11:45	64.3	64.3	64.3	70	54.3	1	5	270	0.00	29.923 
11:50	64.5	64.5	64.5	70	54.5	1	4	112	0.00	29.923 
11:55	64.8	64.8	64.8	68	54.0	1	6	270	0.00	29.923 
12:00	65.0	65.0	65.0	66	53.4	1	5	270	0.00	29.921 
12:05	64.8	64.8	64.8	67	53.6	2	9	248	0.00	29.921 
12:10	65.0	65.0	65.0	67	53.8	2	5	248	0.00	29.921 
12:15	65.2	65.2	65.2	66	53.5	2	4	270	0.00	29.923 
12:20	65.3	65.3	65.3	65	53.2	2	7	248	0.00	29.923 
12:25	65.5	65.5	65.5	65	53.4	1	6	248	0.00	29.923 
12:30	65.6	65.6	65.6	64	53.1	2	6	248	0.00	29.925 
12:35	65.8	65.8	65.8	64	53.3	2	5	248	0.00	29.925 
12:40	66.0	66.0	66.0	62	52.6	3	8	248	0.00	29.925 
12:45	66.0	66.0	66.0	62	52.6	2	6	248	0.00	29.930 
12:50	66.1	66.1	66.1	61	52.3	2	7	248	0.00	29.930 
12:55	66.3	66.3	66.3	62	52.9	1	4	248	0.00	29.930 
13:00	66.8	66.8	66.8	61	52.9	2	6	248	0.00	29.925 
13:05	67.3	67.3	67.3	60	52.9	1	4	248	0.00	29.925 
13:10	67.6	67.6	67.6	58	52.3	2	6	248	0.00	29.925 
13:15	67.9	67.9	67.9	58	52.6	2	7	292	0.00	29.921 
13:20	68.1	68.1	68.1	58	52.8	3	9	248	0.00	29.921 
13:25	67.9	67.9	67.9	58	52.6	2	6	248	0.00	29.921 
13:30	68.1	68.1	68.1	58	52.8	2	7	248	0.00	29.917 
13:35	68.3	68.3	68.3	58	52.9	1	6	248	0.00	29.917 
13:40	68.4	68.4	68.4	58	53.0	2	5	248	0.00	29.917 
13:45	68.9	68.9	68.9	58	53.5	1	3	248	0.00	29.910 
13:50	69.3	69.3	69.3	56	52.9	2	4	248	0.00	29.910 
13:55	69.4	69.4	69.4	57	53.5	2	6	248	0.00	29.910 
14:00	69.6	69.6	69.6	57	53.7	1	3	270	0.00	29.905 
14:05	69.6	69.6	69.6	57	53.7	0	2	270	0.00	29.905 
14:10	69.6	69.6	69.6	56	53.2	1	5	248	0.00	29.905 
14:15	69.4	69.4	69.4	57	53.5	0	2	248	0.00	29.915 
14:20	69.3	69.3	69.3	56	52.9	1	4	248	0.00	29.915 
14:25	68.9	68.9	68.9	56	52.5	1	5	248	0.00	29.915 
14:30	68.4	68.4	68.4	57	52.6	1	5	248	0.00	29.920 
14:35	68.3	68.3	68.3	58	52.9	1	4	248	0.00	29.920 
14:40	68.3	68.3	68.3	59	53.4	0	3	225	0.00	29.920 
14:45	68.3	68.3	68.3	58	52.9	1	6	225	0.00	29.909 
14:50	68.3	68.3	68.3	58	52.9	1	4	248	0.00	29.909 
14:55	68.3	68.3	68.3	58	52.9	2	4	248	0.00	29.909 
15:00	68.3	68.3	68.3	58	52.9	1	5	248	0.00	29.914 
15:05	68.3	68.3	68.3	57	52.5	2	5	248	0.00	29.914 
15:10	68.4	68.4	68.4	57	52.6	2	5	248	0.00	29.914 
15:15	68.4	68.4	68.4	57	52.6	2	6	248	0.00	29.907 
15:20	68.3	68.3	68.3	58	52.9	1	4	270	0.00	29.907 
15:25	68.1	68.1	68.1	58	52.8	1	4	270	0.00	29.907 
15:30	68.3	68.3	68.3	58	52.9	0	2	248	0.00	29.903 
15:35	68.3	68.3	68.3	57	52.5	1	4	248	0.00	29.903 
15:40	68.4	68.4	68.4	57	52.6	1	5	270	0.00	29.903 
15:45	68.3	68.3	68.3	57	52.5	1	3	315	0.00	29.902 
15:50	68.1	68.1	68.1	58	52.8	1	5	248	0.00	29.902 
15:55	67.9	67.9	67.9	58	52.6	2	4	248	0.00	29.902 
16:00	67.6	67.6	67.6	58	52.3	2	5	248	0.00	29.904 
16:05	67.4	67.4	67.4	58	52.1	2	4	270	0.00	29.904 
16:10	67.3	67.3	67.3	59	52.5	1	4	248	0.00	29.904 
16:15	67.1	67.1	67.1	59	52.3	2	6	248	0.00	29.910 
16:20	66.9	66.9	66.9	60	52.6	1	5	292	0.00	29.910 
16:25	66.8	66.8	66.8	60	52.5	1	4	45	0.00	29.910 
16:30	66.8	66.8	66.8	61	52.9	1	4	270	0.00	29.904 
16:35	66.6	66.6	66.6	61	52.7	1	4	338	0.00	29.904 
16:40	66.6	66.6	66.6	61	52.7	1	2	248	0.00	29.904 
16:45	66.4	66.4	66.4	61	52.5	1	4	248	0.00	29.890 
16:50	66.3	66.3	66.3	62	52.9	1	3	90	0.00	29.890 
16:55	66.3	66.3	66.3	62	52.9	1	4	45	0.00	29.890 
17:00	66.1	66.1	66.1	62	52.7	0	4	112	0.00	29.888 
17:05	66.1	66.1	66.1	63	53.1	0	2	0	0.00	29.888 
17:10	66.0	66.0	66.0	63	53.0	1	4	248	0.00	29.888 
17:15	65.8	65.8	65.8	64	53.3	1	3	248	0.00	29.890 
17:20	65.6	65.6	65.6	64	53.1	1	3	338	0.00	29.890 
17:25	65.3	65.3	65.3	65	53.2	1	4	248	0.00	29.890 
17:30	65.2	65.2	65.2	65	53.1	1	3	248	0.00	29.915 
17:35	65.0	65.0	65.0	65	52.9	1	4	248	0.00	29.915 
17:40	65.0	65.0	65.0	65	52.9	0	4	248	0.00	29.915 
17:45	64.8	64.8	64.8	66	53.2	0	2	248	0.00	29.928 
17:50	64.7	64.7	64.7	66	53.1	1	4	338	0.00	29.928 
17:55	64.3	64.3	64.3	67	53.1	1	5	248	0.00	29.928 
18:00	64.0	64.0	64.0	69	53.6	1	3	248	0.00	29.923 
18:05	63.7	63.7	63.7	70	53.7	1	4	248	0.00	29.923 
18:10	63.5	63.5	63.5	71	53.9	1	5	248	0.00	29.923 
18:15	63.4	63.4	63.4	72	54.2	1	5	248	0.00	29.932 
18:20	63.1	63.1	63.1	73	54.3	1	3	270	0.00	29.932 
18:25	62.7	62.7	62.7	74	54.3	1	2	292	0.00	29.932 
18:30	62.4	62.4	62.4	75	54.4	1	5	112	0.00	29.939 
18:35	62.1	62.1	62.1	76	54.4	1	3	248	0.00	29.939 
18:40	62.0	62.0	62.0	76	54.3	1	3	270	0.00	29.939 
18:45	61.8	61.8	61.8	77	54.5	0	3	270	0.00	29.953 
18:50	61.6	61.6	61.6	78	54.7	0	4	270	0.00	29.953 
18:55	61.3	61.3	61.3	80	55.1	1	9	90	0.00	29.953 
19:00	61.0	61.0	61.0	81	55.1	0	4	270	0.00	29.958 
19:05	60.9	60.9	60.9	81	55.0	0	4	248	0.00	29.958 
19:10	60.5	60.5	60.5	84	55.6	0	4	248	0.00	29.958 
19:15	60.2	60.2	60.2	85	55.7	0	4	248	0.00	29.970 
19:20	59.9	59.9	59.9	86	55.7	0	3	270	0.00	29.970 
19:25	59.6	59.6	59.6	87	55.7	0	1	270	0.00	29.970 
19:30	59.3	59.3	59.3	88	55.7	0	2	270	0.00	29.973 
19:35	59.2	59.2	59.2	89	56.0	0	1	270	0.00	29.973 
19:40	58.9	58.9	58.9	90	56.0	0	3	248	0.01	29.973 
19:45	58.7	58.7	58.7	90	55.8	0	1	248	0.00	29.967 
19:50	58.7	58.7	58.7	91	56.1	0	1	248	0.00	29.967 
19:55	58.6	58.6	58.6	91	56.0	0	1	248	0.00	29.967 
20:00	58.4	58.4	58.4	92	56.1	0	2	248	0.00	29.961 
20:05	58.4	58.4	58.4	92	56.1	0	3	112	0.00	29.961 
20:10	58.3	58.3	58.3	92	56.0	0	2	112	0.01	29.961 
20:15	58.3	58.3	58.3	92	56.0	0	2	180	0.00	29.961 
20:20	58.3	58.3	58.3	92	56.0	0	1	180	0.00	29.961 
20:25	58.3	58.3	58.3	92	56.0	0	2	180	0.00	29.961 
20:30	58.3	58.3	58.3	92	56.0	0	1	180	0.00	29.973 
20:35	58.1	58.1	58.1	92	55.8	0	2	180	0.00	29.973 
20:40	58.1	58.1	58.1	93	56.1	0	3	22	0.00	29.973 
20:45	58.1	58.1	58.1	93	56.1	0	2	22	0.00	29.977 
20:50	58.1	58.1	58.1	93	56.1	1	3	248	0.00	29.977 
20:55	58.1	58.1	58.1	93	56.1	1	4	248	0.00	29.977 
21:00	58.1	58.1	58.1	93	56.1	0	2	248	0.00	29.975 
21:05	58.1	58.1	58.1	93	56.1	1	3	202	0.00	29.975 
21:10	58.0	58.0	58.0	93	56.0	0	3	225	0.00	29.975 
21:15	58.0	58.0	58.0	93	56.0	1	2	225	0.00	29.977 
21:20	58.0	58.0	58.0	93	56.0	1	2	225	0.00	29.977 
21:25	58.0	58.0	58.0	93	56.0	0	2	225	0.00	29.977 
21:30	58.0	58.0	58.0	93	56.0	1	3	225	0.00	29.984 
21:35	58.0	58.0	58.0	92	55.7	1	3	225	0.00	29.984 
21:40	58.0	58.0	58.0	92	55.7	0	2	225	0.00	29.984 
21:45	58.0	58.0	58.0	92	55.7	0	2	225	0.00	29.981 
21:50	58.0	58.0	58.0	92	55.7	1	3	225	0.00	29.981 
21:55	58.0	58.0	58.0	92	55.7	1	3	225	0.00	29.981 
22:00	58.0	58.0	58.0	92	55.7	0	3	270	0.00	29.978 
22:05	58.0	58.0	58.0	92	55.7	0	1	270	0.00	29.978 
22:10	58.0	58.0	58.0	92	55.7	0	2	270	0.00	29.978 
22:15	58.0	58.0	58.0	92	55.7	0	2	270	0.00	29.974 
22:20	58.0	58.0	58.0	92	55.7	0	2	270	0.00	29.974 
22:25	58.0	58.0	58.0	92	55.7	0	2	270	0.00	29.974 
22:30	58.0	58.0	58.0	92	55.7	0	2	270	0.00	29.973 
22:35	57.8	57.8	57.8	92	55.5	0	2	270	0.00	29.973 
22:40	57.8	57.8	57.8	92	55.5	0	3	270	0.00	29.973 
22:45	57.8	57.8	57.8	92	55.5	0	2	270	0.00	29.974 
22:50	57.8	57.8	57.8	92	55.5	0	1	270	0.00	29.974 
22:55	57.8	57.8	57.8	92	55.5	0	1	270	0.00	29.974 
23:00	57.8	57.8	57.8	92	55.5	0	1	270	0.00	29.973 
23:05	57.8	57.8	57.8	92	55.5	0	2	270	0.00	29.973 
23:10	57.8	57.8	57.8	92	55.5	0	1	270	0.00	29.973 
23:15	57.8	57.8	57.8	92	55.5	0	1	270	0.00	29.969 
23:20	57.6	57.6	57.6	92	55.3	0	1	270	0.00	29.969 
23:25	57.6	57.6	57.6	92	55.3	0	1	270	0.00	29.969 
23:30	57.6	57.6	57.6	92	55.3	0	1	270	0.00	29.969 
23:35	57.6	57.6	57.6	92	55.3	0	1	270	0.00	29.969 
23:40	57.6	57.6	57.6	93	55.6	0	1	270	0.00	29.969 
23:45	57.6	57.6	57.6	93	55.6	0	0	---	0.00	29.959 
23:50	57.6	57.6	57.6	93	55.6	0	1	270	0.00	29.959 
23:55	57.6	57.6	57.6	93	55.6	0	1	270	0.00	29.959 

CoCoRaHS
IN-AL-39
A2 Web Hosting
Creative Commons License
GoDaddy
search engine by freefind advanced

loaded 2018-11-15 13:47:06 • last modified 2010-11-18 10:43:29
Privacy PolicyDisclaimer
• wx.awcolley.com is powered by PmWiki v.2002016 •
• all content (unless otherwise noted) © 2018 A W Colley